sensor_id;sensor_type;location;lat;lon;timestamp;P1;durP1;ratioP1;P2;durP2;ratioP2
31336;SDS011;22846;42.654;23.314;2023-10-08T00:00:46;6.70;;;3.17;;
31336;SDS011;22846;42.654;23.314;2023-10-08T00:03:14;6.72;;;3.28;;
31336;SDS011;22846;42.654;23.314;2023-10-08T00:05:42;5.60;;;3.00;;
31336;SDS011;22846;42.654;23.314;2023-10-08T00:08:08;5.07;;;3.00;;
31336;SDS011;22846;42.654;23.314;2023-10-08T00:10:38;5.97;;;2.83;;
31336;SDS011;22846;42.654;23.314;2023-10-08T00:13:08;4.93;;;2.67;;
31336;SDS011;22846;42.654;23.314;2023-10-08T00:15:38;5.20;;;2.83;;
31336;SDS011;22846;42.654;23.314;2023-10-08T00:18:17;5.28;;;3.15;;
31336;SDS011;22846;42.654;23.314;2023-10-08T00:20:43;5.70;;;3.20;;
31336;SDS011;22846;42.654;23.314;2023-10-08T00:23:19;5.53;;;2.90;;
31336;SDS011;22846;42.654;23.314;2023-10-08T00:25:45;5.65;;;2.92;;
31336;SDS011;22846;42.654;23.314;2023-10-08T00:28:12;4.85;;;2.90;;
31336;SDS011;22846;42.654;23.314;2023-10-08T00:30:41;5.03;;;2.53;;
31336;SDS011;22846;42.654;23.314;2023-10-08T00:33:07;4.30;;;2.78;;
31336;SDS011;22846;42.654;23.314;2023-10-08T00:35:37;4.13;;;2.38;;
31336;SDS011;22846;42.654;23.314;2023-10-08T00:38:03;4.93;;;2.58;;
31336;SDS011;22846;42.654;23.314;2023-10-08T00:40:37;4.65;;;2.25;;
31336;SDS011;22846;42.654;23.314;2023-10-08T00:43:09;5.28;;;2.70;;
31336;SDS011;22846;42.654;23.314;2023-10-08T00:45:36;4.75;;;2.78;;
31336;SDS011;22846;42.654;23.314;2023-10-08T00:48:07;4.85;;;2.97;;
31336;SDS011;22846;42.654;23.314;2023-10-08T00:50:34;3.83;;;2.58;;
31336;SDS011;22846;42.654;23.314;2023-10-08T00:53:08;6.10;;;2.63;;
31336;SDS011;22846;42.654;23.314;2023-10-08T00:55:42;3.83;;;2.20;;
31336;SDS011;22846;42.654;23.314;2023-10-08T00:58:15;5.18;;;2.50;;
31336;SDS011;22846;42.654;23.314;2023-10-08T01:00:49;4.32;;;2.50;;
31336;SDS011;22846;42.654;23.314;2023-10-08T01:03:24;4.85;;;2.95;;
31336;SDS011;22846;42.654;23.314;2023-10-08T01:05:52;5.47;;;2.95;;
31336;SDS011;22846;42.654;23.314;2023-10-08T01:08:18;4.47;;;2.60;;
31336;SDS011;22846;42.654;23.314;2023-10-08T01:10:57;4.25;;;2.80;;
31336;SDS011;22846;42.654;23.314;2023-10-08T01:13:25;5.22;;;2.88;;
31336;SDS011;22846;42.654;23.314;2023-10-08T01:15:51;4.88;;;2.60;;
31336;SDS011;22846;42.654;23.314;2023-10-08T01:18:17;4.95;;;2.70;;
31336;SDS011;22846;42.654;23.314;2023-10-08T01:20:50;4.10;;;2.75;;
31336;SDS011;22846;42.654;23.314;2023-10-08T01:23:17;3.20;;;2.47;;
31336;SDS011;22846;42.654;23.314;2023-10-08T01:25:47;3.50;;;2.30;;
31336;SDS011;22846;42.654;23.314;2023-10-08T01:28:17;3.17;;;2.15;;
31336;SDS011;22846;42.654;23.314;2023-10-08T01:30:51;4.55;;;2.45;;
31336;SDS011;22846;42.654;23.314;2023-10-08T01:33:19;3.78;;;2.42;;
31336;SDS011;22846;42.654;23.314;2023-10-08T01:35:46;4.88;;;2.90;;
31336;SDS011;22846;42.654;23.314;2023-10-08T01:38:13;4.90;;;2.58;;
31336;SDS011;22846;42.654;23.314;2023-10-08T01:40:40;2.92;;;2.15;;
31336;SDS011;22846;42.654;23.314;2023-10-08T01:43:06;5.22;;;2.47;;
31336;SDS011;22846;42.654;23.314;2023-10-08T01:45:35;3.80;;;2.33;;
31336;SDS011;22846;42.654;23.314;2023-10-08T01:48:04;3.95;;;2.50;;
31336;SDS011;22846;42.654;23.314;2023-10-08T01:50:30;4.00;;;2.60;;
31336;SDS011;22846;42.654;23.314;2023-10-08T01:52:59;4.20;;;2.30;;
31336;SDS011;22846;42.654;23.314;2023-10-08T01:55:25;5.40;;;2.50;;
31336;SDS011;22846;42.654;23.314;2023-10-08T01:57:51;4.88;;;2.67;;
31336;SDS011;22846;42.654;23.314;2023-10-08T02:00:17;3.67;;;2.22;;
31336;SDS011;22846;42.654;23.314;2023-10-08T02:02:47;3.95;;;2.25;;
31336;SDS011;22846;42.654;23.314;2023-10-08T02:05:18;3.42;;;2.20;;
31336;SDS011;22846;42.654;23.314;2023-10-08T02:07:46;3.75;;;2.22;;
31336;SDS011;22846;42.654;23.314;2023-10-08T02:10:11;3.47;;;2.22;;
31336;SDS011;22846;42.654;23.314;2023-10-08T02:12:39;4.13;;;2.47;;
31336;SDS011;22846;42.654;23.314;2023-10-08T02:15:06;3.35;;;2.10;;
31336;SDS011;22846;42.654;23.314;2023-10-08T02:17:32;3.60;;;2.10;;
31336;SDS011;22846;42.654;23.314;2023-10-08T02:19:58;3.50;;;2.47;;
31336;SDS011;22846;42.654;23.314;2023-10-08T02:22:23;3.70;;;2.35;;
31336;SDS011;22846;42.654;23.314;2023-10-08T02:24:48;4.22;;;1.92;;
31336;SDS011;22846;42.654;23.314;2023-10-08T02:27:15;3.88;;;2.60;;
31336;SDS011;22846;42.654;23.314;2023-10-08T02:29:41;2.95;;;1.98;;
31336;SDS011;22846;42.654;23.314;2023-10-08T02:32:07;4.45;;;2.08;;
31336;SDS011;22846;42.654;23.314;2023-10-08T02:34:33;2.83;;;1.90;;
31336;SDS011;22846;42.654;23.314;2023-10-08T02:37:00;2.97;;;2.05;;
31336;SDS011;22846;42.654;23.314;2023-10-08T02:39:28;3.05;;;2.08;;
31336;SDS011;22846;42.654;23.314;2023-10-08T02:41:55;4.63;;;2.42;;
31336;SDS011;22846;42.654;23.314;2023-10-08T02:44:24;3.30;;;2.20;;
31336;SDS011;22846;42.654;23.314;2023-10-08T02:46:49;4.82;;;2.13;;
31336;SDS011;22846;42.654;23.314;2023-10-08T02:49:19;3.33;;;2.03;;
31336;SDS011;22846;42.654;23.314;2023-10-08T02:51:46;3.05;;;2.10;;
31336;SDS011;22846;42.654;23.314;2023-10-08T02:54:12;4.45;;;1.85;;
31336;SDS011;22846;42.654;23.314;2023-10-08T02:56:47;5.05;;;2.22;;
31336;SDS011;22846;42.654;23.314;2023-10-08T03:01:41;2.95;;;2.00;;
31336;SDS011;22846;42.654;23.314;2023-10-08T03:04:10;4.55;;;2.78;;
31336;SDS011;22846;42.654;23.314;2023-10-08T03:06:45;3.22;;;2.10;;
31336;SDS011;22846;42.654;23.314;2023-10-08T03:09:20;3.03;;;2.05;;
31336;SDS011;22846;42.654;23.314;2023-10-08T03:11:49;3.00;;;2.00;;
31336;SDS011;22846;42.654;23.314;2023-10-08T03:14:15;2.90;;;2.00;;
31336;SDS011;22846;42.654;23.314;2023-10-08T03:16:51;3.35;;;2.40;;
31336;SDS011;22846;42.654;23.314;2023-10-08T03:19:18;3.45;;;2.10;;
31336;SDS011;22846;42.654;23.314;2023-10-08T03:21:48;3.30;;;2.25;;
31336;SDS011;22846;42.654;23.314;2023-10-08T03:24:16;2.83;;;1.85;;
31336;SDS011;22846;42.654;23.314;2023-10-08T03:26:58;4.22;;;2.55;;
31336;SDS011;22846;42.654;23.314;2023-10-08T03:29:45;3.05;;;2.00;;
31336;SDS011;22846;42.654;23.314;2023-10-08T03:32:12;3.08;;;2.10;;
31336;SDS011;22846;42.654;23.314;2023-10-08T03:34:48;2.92;;;1.88;;
31336;SDS011;22846;42.654;23.314;2023-10-08T03:39:46;3.75;;;2.40;;
31336;SDS011;22846;42.654;23.314;2023-10-08T03:42:25;3.13;;;2.25;;
31336;SDS011;22846;42.654;23.314;2023-10-08T03:44:51;3.63;;;2.03;;
31336;SDS011;22846;42.654;23.314;2023-10-08T03:47:18;3.65;;;2.20;;
31336;SDS011;22846;42.654;23.314;2023-10-08T03:49:47;2.30;;;1.75;;
31336;SDS011;22846;42.654;23.314;2023-10-08T03:52:15;3.20;;;2.10;;
31336;SDS011;22846;42.654;23.314;2023-10-08T03:54:41;4.45;;;2.30;;
31336;SDS011;22846;42.654;23.314;2023-10-08T03:57:25;2.63;;;2.03;;
31336;SDS011;22846;42.654;23.314;2023-10-08T04:00:06;3.25;;;2.08;;
31336;SDS011;22846;42.654;23.314;2023-10-08T04:02:36;2.83;;;2.08;;
31336;SDS011;22846;42.654;23.314;2023-10-08T04:05:11;3.15;;;1.88;;
31336;SDS011;22846;42.654;23.314;2023-10-08T04:07:44;3.80;;;2.13;;
31336;SDS011;22846;42.654;23.314;2023-10-08T04:10:29;3.22;;;2.20;;
31336;SDS011;22846;42.654;23.314;2023-10-08T04:13:07;2.70;;;1.77;;
31336;SDS011;22846;42.654;23.314;2023-10-08T04:15:39;3.72;;;2.40;;
31336;SDS011;22846;42.654;23.314;2023-10-08T04:18:10;2.72;;;1.90;;
31336;SDS011;22846;42.654;23.314;2023-10-08T04:20:36;2.90;;;2.08;;
31336;SDS011;22846;42.654;23.314;2023-10-08T04:23:08;3.78;;;2.30;;
31336;SDS011;22846;42.654;23.314;2023-10-08T04:25:43;2.38;;;1.83;;
31336;SDS011;22846;42.654;23.314;2023-10-08T04:28:08;2.83;;;1.90;;
31336;SDS011;22846;42.654;23.314;2023-10-08T04:30:39;2.67;;;1.90;;
31336;SDS011;22846;42.654;23.314;2023-10-08T04:33:07;5.65;;;2.50;;
31336;SDS011;22846;42.654;23.314;2023-10-08T04:35:40;2.72;;;1.80;;
31336;SDS011;22846;42.654;23.314;2023-10-08T04:38:26;2.22;;;1.90;;
31336;SDS011;22846;42.654;23.314;2023-10-08T04:40:53;3.65;;;1.95;;
31336;SDS011;22846;42.654;23.314;2023-10-08T04:43:20;2.53;;;1.90;;
31336;SDS011;22846;42.654;23.314;2023-10-08T04:45:56;3.45;;;2.05;;
31336;SDS011;22846;42.654;23.314;2023-10-08T04:48:23;2.63;;;2.00;;
31336;SDS011;22846;42.654;23.314;2023-10-08T04:50:49;3.05;;;1.95;;
31336;SDS011;22846;42.654;23.314;2023-10-08T04:53:33;2.17;;;1.92;;
31336;SDS011;22846;42.654;23.314;2023-10-08T04:56:03;3.15;;;2.10;;
31336;SDS011;22846;42.654;23.314;2023-10-08T04:58:31;3.55;;;2.40;;
31336;SDS011;22846;42.654;23.314;2023-10-08T05:01:02;4.07;;;2.47;;
31336;SDS011;22846;42.654;23.314;2023-10-08T05:03:43;3.88;;;2.33;;
31336;SDS011;22846;42.654;23.314;2023-10-08T05:06:20;3.05;;;2.00;;
31336;SDS011;22846;42.654;23.314;2023-10-08T05:09:05;3.60;;;1.85;;
31336;SDS011;22846;42.654;23.314;2023-10-08T05:14:15;2.97;;;1.70;;
31336;SDS011;22846;42.654;23.314;2023-10-08T05:16:56;3.08;;;2.13;;
31336;SDS011;22846;42.654;23.314;2023-10-08T05:19:47;3.80;;;2.20;;
31336;SDS011;22846;42.654;23.314;2023-10-08T05:22:23;3.22;;;2.00;;
31336;SDS011;22846;42.654;23.314;2023-10-08T05:24:57;3.47;;;2.55;;
31336;SDS011;22846;42.654;23.314;2023-10-08T05:27:32;2.60;;;1.95;;
31336;SDS011;22846;42.654;23.314;2023-10-08T05:30:16;4.30;;;2.13;;
31336;SDS011;22846;42.654;23.314;2023-10-08T05:33:01;3.67;;;2.20;;
31336;SDS011;22846;42.654;23.314;2023-10-08T05:35:44;2.80;;;1.92;;
31336;SDS011;22846;42.654;23.314;2023-10-08T05:38:15;2.35;;;1.75;;
31336;SDS011;22846;42.654;23.314;2023-10-08T05:40:48;4.00;;;2.17;;
31336;SDS011;22846;42.654;23.314;2023-10-08T05:43:32;3.33;;;1.90;;
31336;SDS011;22846;42.654;23.314;2023-10-08T05:46:35;2.08;;;1.73;;
31336;SDS011;22846;42.654;23.314;2023-10-08T05:48:54;2.45;;;1.90;;
31336;SDS011;22846;42.654;23.314;2023-10-08T05:51:28;3.42;;;1.90;;
31336;SDS011;22846;42.654;23.314;2023-10-08T05:54:29;2.35;;;1.75;;
31336;SDS011;22846;42.654;23.314;2023-10-08T05:56:56;2.42;;;1.60;;
31336;SDS011;22846;42.654;23.314;2023-10-08T05:59:50;2.88;;;1.80;;
31336;SDS011;22846;42.654;23.314;2023-10-08T06:02:21;3.03;;;2.00;;
31336;SDS011;22846;42.654;23.314;2023-10-08T06:07:39;2.50;;;1.63;;
31336;SDS011;22846;42.654;23.314;2023-10-08T06:10:21;2.38;;;1.73;;
31336;SDS011;22846;42.654;23.314;2023-10-08T06:15:37;1.92;;;1.50;;
31336;SDS011;22846;42.654;23.314;2023-10-08T06:18:25;2.90;;;1.98;;
31336;SDS011;22846;42.654;23.314;2023-10-08T06:20:56;2.20;;;1.50;;
31336;SDS011;22846;42.654;23.314;2023-10-08T06:23:29;2.33;;;1.63;;
31336;SDS011;22846;42.654;23.314;2023-10-08T06:26:00;2.97;;;1.80;;
31336;SDS011;22846;42.654;23.314;2023-10-08T06:28:31;2.08;;;1.55;;
31336;SDS011;22846;42.654;23.314;2023-10-08T06:31:00;2.92;;;2.00;;
31336;SDS011;22846;42.654;23.314;2023-10-08T06:33:28;2.22;;;1.73;;
31336;SDS011;22846;42.654;23.314;2023-10-08T06:35:58;2.20;;;1.48;;
31336;SDS011;22846;42.654;23.314;2023-10-08T06:38:39;2.10;;;1.38;;
31336;SDS011;22846;42.654;23.314;2023-10-08T06:41:06;2.85;;;2.03;;
31336;SDS011;22846;42.654;23.314;2023-10-08T06:43:39;2.40;;;1.65;;
31336;SDS011;22846;42.654;23.314;2023-10-08T06:46:11;1.85;;;1.40;;
31336;SDS011;22846;42.654;23.314;2023-10-08T06:48:38;2.53;;;1.80;;
31336;SDS011;22846;42.654;23.314;2023-10-08T06:51:07;1.85;;;1.45;;
31336;SDS011;22846;42.654;23.314;2023-10-08T06:53:41;2.55;;;1.95;;
31336;SDS011;22846;42.654;23.314;2023-10-08T06:56:07;2.25;;;1.60;;
31336;SDS011;22846;42.654;23.314;2023-10-08T06:58:35;2.03;;;1.30;;
31336;SDS011;22846;42.654;23.314;2023-10-08T07:01:00;3.42;;;1.50;;
31336;SDS011;22846;42.654;23.314;2023-10-08T07:03:34;2.70;;;1.65;;
31336;SDS011;22846;42.654;23.314;2023-10-08T07:06:03;1.90;;;1.50;;
31336;SDS011;22846;42.654;23.314;2023-10-08T07:08:41;2.50;;;1.60;;
31336;SDS011;22846;42.654;23.314;2023-10-08T07:11:11;2.65;;;1.58;;
31336;SDS011;22846;42.654;23.314;2023-10-08T07:13:37;2.45;;;1.75;;
31336;SDS011;22846;42.654;23.314;2023-10-08T07:16:05;3.10;;;1.48;;
31336;SDS011;22846;42.654;23.314;2023-10-08T07:18:36;3.30;;;1.60;;
31336;SDS011;22846;42.654;23.314;2023-10-08T07:21:02;2.63;;;1.52;;
31336;SDS011;22846;42.654;23.314;2023-10-08T07:23:37;3.25;;;1.80;;
31336;SDS011;22846;42.654;23.314;2023-10-08T07:26:18;3.42;;;2.00;;
31336;SDS011;22846;42.654;23.314;2023-10-08T07:28:48;5.20;;;2.05;;
31336;SDS011;22846;42.654;23.314;2023-10-08T07:31:18;3.50;;;1.67;;
31336;SDS011;22846;42.654;23.314;2023-10-08T07:33:53;5.85;;;1.83;;
31336;SDS011;22846;42.654;23.314;2023-10-08T07:36:25;6.88;;;2.20;;
31336;SDS011;22846;42.654;23.314;2023-10-08T07:38:51;3.63;;;1.52;;
31336;SDS011;22846;42.654;23.314;2023-10-08T07:41:18;7.18;;;1.77;;
31336;SDS011;22846;42.654;23.314;2023-10-08T07:43:45;7.78;;;1.73;;
31336;SDS011;22846;42.654;23.314;2023-10-08T07:46:26;8.80;;;3.42;;
31336;SDS011;22846;42.654;23.314;2023-10-08T07:48:53;9.07;;;4.05;;
31336;SDS011;22846;42.654;23.314;2023-10-08T07:51:23;6.60;;;3.17;;
31336;SDS011;22846;42.654;23.314;2023-10-08T07:53:49;8.25;;;3.70;;
31336;SDS011;22846;42.654;23.314;2023-10-08T07:56:19;12.13;;;3.22;;
31336;SDS011;22846;42.654;23.314;2023-10-08T07:58:44;10.65;;;3.13;;
31336;SDS011;22846;42.654;23.314;2023-10-08T08:01:10;13.13;;;3.17;;
31336;SDS011;22846;42.654;23.314;2023-10-08T08:03:38;18.70;;;4.70;;
31336;SDS011;22846;42.654;23.314;2023-10-08T08:06:08;13.18;;;4.47;;
31336;SDS011;22846;42.654;23.314;2023-10-08T08:08:34;8.50;;;3.80;;
31336;SDS011;22846;42.654;23.314;2023-10-08T08:11:01;14.70;;;4.28;;
31336;SDS011;22846;42.654;23.314;2023-10-08T08:13:35;8.13;;;3.65;;
31336;SDS011;22846;42.654;23.314;2023-10-08T08:16:01;8.07;;;3.55;;
31336;SDS011;22846;42.654;23.314;2023-10-08T08:18:41;7.68;;;3.67;;
31336;SDS011;22846;42.654;23.314;2023-10-08T08:21:14;12.15;;;4.00;;
31336;SDS011;22846;42.654;23.314;2023-10-08T08:23:43;7.63;;;3.70;;
31336;SDS011;22846;42.654;23.314;2023-10-08T08:26:16;8.00;;;3.35;;
31336;SDS011;22846;42.654;23.314;2023-10-08T08:31:22;11.85;;;3.35;;
31336;SDS011;22846;42.654;23.314;2023-10-08T08:33:48;13.57;;;3.78;;
31336;SDS011;22846;42.654;23.314;2023-10-08T08:36:25;10.18;;;3.80;;
31336;SDS011;22846;42.654;23.314;2023-10-08T08:38:52;15.95;;;4.05;;
31336;SDS011;22846;42.654;23.314;2023-10-08T08:41:18;10.38;;;4.43;;
31336;SDS011;22846;42.654;23.314;2023-10-08T08:43:49;7.60;;;3.85;;
31336;SDS011;22846;42.654;23.314;2023-10-08T08:46:23;9.52;;;4.20;;
31336;SDS011;22846;42.654;23.314;2023-10-08T08:48:58;11.10;;;4.03;;
31336;SDS011;22846;42.654;23.314;2023-10-08T08:51:26;11.32;;;4.40;;
31336;SDS011;22846;42.654;23.314;2023-10-08T08:53:55;10.50;;;4.55;;
31336;SDS011;22846;42.654;23.314;2023-10-08T08:56:20;10.38;;;3.97;;
31336;SDS011;22846;42.654;23.314;2023-10-08T08:58:47;23.15;;;4.95;;
31336;SDS011;22846;42.654;23.314;2023-10-08T09:01:14;11.90;;;4.57;;
31336;SDS011;22846;42.654;23.314;2023-10-08T09:03:42;24.83;;;5.80;;
31336;SDS011;22846;42.654;23.314;2023-10-08T09:06:08;20.95;;;5.68;;
31336;SDS011;22846;42.654;23.314;2023-10-08T09:08:34;20.33;;;6.32;;
31336;SDS011;22846;42.654;23.314;2023-10-08T09:11:00;17.05;;;4.95;;
31336;SDS011;22846;42.654;23.314;2023-10-08T09:13:27;26.95;;;5.85;;
31336;SDS011;22846;42.654;23.314;2023-10-08T09:15:57;16.58;;;4.95;;
31336;SDS011;22846;42.654;23.314;2023-10-08T09:18:33;16.42;;;5.18;;
31336;SDS011;22846;42.654;23.314;2023-10-08T09:21:13;19.25;;;4.55;;
31336;SDS011;22846;42.654;23.314;2023-10-08T09:23:40;13.00;;;4.63;;
31336;SDS011;22846;42.654;23.314;2023-10-08T09:26:12;14.90;;;4.72;;
31336;SDS011;22846;42.654;23.314;2023-10-08T09:28:45;13.70;;;4.78;;
31336;SDS011;22846;42.654;23.314;2023-10-08T09:31:14;13.80;;;4.32;;
31336;SDS011;22846;42.654;23.314;2023-10-08T09:33:42;18.50;;;4.38;;
31336;SDS011;22846;42.654;23.314;2023-10-08T09:36:09;17.27;;;4.57;;
31336;SDS011;22846;42.654;23.314;2023-10-08T09:38:40;11.63;;;4.40;;
31336;SDS011;22846;42.654;23.314;2023-10-08T09:41:08;11.63;;;4.63;;
31336;SDS011;22846;42.654;23.314;2023-10-08T09:43:34;12.18;;;4.22;;
31336;SDS011;22846;42.654;23.314;2023-10-08T09:46:03;10.60;;;4.70;;
31336;SDS011;22846;42.654;23.314;2023-10-08T09:48:41;11.85;;;4.40;;
31336;SDS011;22846;42.654;23.314;2023-10-08T09:51:09;10.73;;;4.72;;
31336;SDS011;22846;42.654;23.314;2023-10-08T09:53:51;11.13;;;4.32;;
31336;SDS011;22846;42.654;23.314;2023-10-08T09:56:20;11.27;;;4.07;;
31336;SDS011;22846;42.654;23.314;2023-10-08T09:58:49;9.50;;;3.70;;
31336;SDS011;22846;42.654;23.314;2023-10-08T10:01:16;9.10;;;3.67;;
31336;SDS011;22846;42.654;23.314;2023-10-08T10:03:44;11.73;;;4.50;;
31336;SDS011;22846;42.654;23.314;2023-10-08T10:06:13;12.70;;;4.00;;
31336;SDS011;22846;42.654;23.314;2023-10-08T10:08:42;9.77;;;3.90;;
31336;SDS011;22846;42.654;23.314;2023-10-08T10:11:08;12.93;;;3.65;;
31336;SDS011;22846;42.654;23.314;2023-10-08T10:13:39;11.73;;;3.63;;
31336;SDS011;22846;42.654;23.314;2023-10-08T10:16:06;8.18;;;3.65;;
31336;SDS011;22846;42.654;23.314;2023-10-08T10:18:33;9.95;;;3.90;;
31336;SDS011;22846;42.654;23.314;2023-10-08T10:26:03;9.40;;;3.35;;
31336;SDS011;22846;42.654;23.314;2023-10-08T10:28:29;6.78;;;4.03;;
31336;SDS011;22846;42.654;23.314;2023-10-08T10:30:55;6.75;;;3.45;;
31336;SDS011;22846;42.654;23.314;2023-10-08T10:33:31;7.28;;;3.63;;
31336;SDS011;22846;42.654;23.314;2023-10-08T10:35:57;8.30;;;3.40;;
31336;SDS011;22846;42.654;23.314;2023-10-08T10:38:26;10.57;;;3.88;;
31336;SDS011;22846;42.654;23.314;2023-10-08T10:40:51;9.48;;;3.42;;
31336;SDS011;22846;42.654;23.314;2023-10-08T10:43:23;12.07;;;3.72;;
31336;SDS011;22846;42.654;23.314;2023-10-08T10:45:57;7.88;;;3.63;;
31336;SDS011;22846;42.654;23.314;2023-10-08T10:48:45;6.72;;;3.50;;
31336;SDS011;22846;42.654;23.314;2023-10-08T10:51:22;8.18;;;3.30;;
31336;SDS011;22846;42.654;23.314;2023-10-08T10:53:47;6.15;;;3.17;;
31336;SDS011;22846;42.654;23.314;2023-10-08T10:56:27;6.05;;;3.08;;
31336;SDS011;22846;42.654;23.314;2023-10-08T10:59:00;7.93;;;3.28;;
31336;SDS011;22846;42.654;23.314;2023-10-08T11:01:40;6.00;;;3.33;;
31336;SDS011;22846;42.654;23.314;2023-10-08T11:04:18;6.10;;;3.03;;
31336;SDS011;22846;42.654;23.314;2023-10-08T11:06:45;6.82;;;3.40;;
31336;SDS011;22846;42.654;23.314;2023-10-08T11:09:13;8.55;;;3.40;;
31336;SDS011;22846;42.654;23.314;2023-10-08T11:14:23;6.28;;;3.20;;
31336;SDS011;22846;42.654;23.314;2023-10-08T11:16:50;4.72;;;2.75;;
31336;SDS011;22846;42.654;23.314;2023-10-08T11:19:16;7.97;;;2.92;;
31336;SDS011;22846;42.654;23.314;2023-10-08T11:21:51;7.88;;;3.15;;
31336;SDS011;22846;42.654;23.314;2023-10-08T11:24:31;8.32;;;3.08;;
31336;SDS011;22846;42.654;23.314;2023-10-08T11:27:01;6.13;;;2.78;;
31336;SDS011;22846;42.654;23.314;2023-10-08T11:29:49;5.80;;;3.00;;
31336;SDS011;22846;42.654;23.314;2023-10-08T11:32:23;5.45;;;2.90;;
31336;SDS011;22846;42.654;23.314;2023-10-08T11:34:57;5.78;;;2.50;;
31336;SDS011;22846;42.654;23.314;2023-10-08T11:37:28;5.55;;;2.58;;
31336;SDS011;22846;42.654;23.314;2023-10-08T11:39:56;7.10;;;3.13;;
31336;SDS011;22846;42.654;23.314;2023-10-08T11:42:24;5.03;;;2.88;;
31336;SDS011;22846;42.654;23.314;2023-10-08T11:44:56;5.13;;;3.03;;
31336;SDS011;22846;42.654;23.314;2023-10-08T11:47:27;4.40;;;2.58;;
31336;SDS011;22846;42.654;23.314;2023-10-08T11:50:00;5.70;;;3.08;;
31336;SDS011;22846;42.654;23.314;2023-10-08T11:52:38;4.72;;;2.70;;
31336;SDS011;22846;42.654;23.314;2023-10-08T11:55:07;4.20;;;2.53;;
31336;SDS011;22846;42.654;23.314;2023-10-08T11:57:34;5.20;;;2.40;;
31336;SDS011;22846;42.654;23.314;2023-10-08T12:00:03;5.93;;;2.80;;
31336;SDS011;22846;42.654;23.314;2023-10-08T12:02:44;4.93;;;2.45;;
31336;SDS011;22846;42.654;23.314;2023-10-08T12:05:13;5.70;;;2.65;;
31336;SDS011;22846;42.654;23.314;2023-10-08T12:07:47;4.82;;;2.35;;
31336;SDS011;22846;42.654;23.314;2023-10-08T12:10:13;4.18;;;2.38;;
31336;SDS011;22846;42.654;23.314;2023-10-08T12:12:41;3.72;;;2.42;;
31336;SDS011;22846;42.654;23.314;2023-10-08T12:15:07;4.72;;;2.70;;
31336;SDS011;22846;42.654;23.314;2023-10-08T12:17:34;5.53;;;2.60;;
31336;SDS011;22846;42.654;23.314;2023-10-08T12:20:07;4.78;;;2.35;;
31336;SDS011;22846;42.654;23.314;2023-10-08T12:22:48;5.65;;;2.25;;
31336;SDS011;22846;42.654;23.314;2023-10-08T12:25:15;3.67;;;2.22;;
31336;SDS011;22846;42.654;23.314;2023-10-08T12:27:40;6.15;;;2.70;;
31336;SDS011;22846;42.654;23.314;2023-10-08T12:30:06;3.95;;;2.25;;
31336;SDS011;22846;42.654;23.314;2023-10-08T12:32:36;3.88;;;2.10;;
31336;SDS011;22846;42.654;23.314;2023-10-08T12:35:07;3.97;;;2.53;;
31336;SDS011;22846;42.654;23.314;2023-10-08T12:37:39;3.88;;;2.15;;
31336;SDS011;22846;42.654;23.314;2023-10-08T12:40:06;4.75;;;2.42;;
31336;SDS011;22846;42.654;23.314;2023-10-08T12:42:48;5.32;;;2.60;;
31336;SDS011;22846;42.654;23.314;2023-10-08T12:45:15;4.43;;;2.20;;
31336;SDS011;22846;42.654;23.314;2023-10-08T12:47:45;4.45;;;2.40;;
31336;SDS011;22846;42.654;23.314;2023-10-08T12:50:17;5.97;;;2.40;;
31336;SDS011;22846;42.654;23.314;2023-10-08T12:53:04;4.35;;;2.20;;
31336;SDS011;22846;42.654;23.314;2023-10-08T12:55:30;4.43;;;2.67;;
31336;SDS011;22846;42.654;23.314;2023-10-08T12:57:56;3.70;;;2.20;;
31336;SDS011;22846;42.654;23.314;2023-10-08T13:00:31;4.75;;;2.22;;
31336;SDS011;22846;42.654;23.314;2023-10-08T13:02:57;3.50;;;2.17;;
31336;SDS011;22846;42.654;23.314;2023-10-08T13:05:23;3.25;;;2.10;;
31336;SDS011;22846;42.654;23.314;2023-10-08T13:07:55;3.17;;;2.13;;
31336;SDS011;22846;42.654;23.314;2023-10-08T13:10:24;3.92;;;2.13;;
31336;SDS011;22846;42.654;23.314;2023-10-08T13:12:51;3.42;;;2.00;;
31336;SDS011;22846;42.654;23.314;2023-10-08T13:15:16;5.07;;;2.38;;
31336;SDS011;22846;42.654;23.314;2023-10-08T13:17:42;3.00;;;2.00;;
31336;SDS011;22846;42.654;23.314;2023-10-08T13:20:17;4.55;;;2.20;;
31336;SDS011;22846;42.654;23.314;2023-10-08T13:22:42;3.70;;;2.28;;
31336;SDS011;22846;42.654;23.314;2023-10-08T13:25:09;3.83;;;2.10;;
31336;SDS011;22846;42.654;23.314;2023-10-08T13:27:36;7.85;;;2.50;;
31336;SDS011;22846;42.654;23.314;2023-10-08T13:30:06;8.50;;;2.40;;
31336;SDS011;22846;42.654;23.314;2023-10-08T13:32:37;55.38;;;7.78;;
31336;SDS011;22846;42.654;23.314;2023-10-08T13:35:05;15.65;;;4.45;;
31336;SDS011;22846;42.654;23.314;2023-10-08T13:37:36;24.67;;;5.07;;
31336;SDS011;22846;42.654;23.314;2023-10-08T13:40:02;22.48;;;5.30;;
31336;SDS011;22846;42.654;23.314;2023-10-08T13:42:28;35.58;;;6.43;;
31336;SDS011;22846;42.654;23.314;2023-10-08T13:44:54;30.42;;;4.97;;
31336;SDS011;22846;42.654;23.314;2023-10-08T13:47:23;26.33;;;4.72;;
31336;SDS011;22846;42.654;23.314;2023-10-08T13:49:50;29.23;;;5.18;;
31336;SDS011;22846;42.654;23.314;2023-10-08T13:52:17;33.35;;;5.00;;
31336;SDS011;22846;42.654;23.314;2023-10-08T13:54:45;22.40;;;5.03;;
31336;SDS011;22846;42.654;23.314;2023-10-08T13:57:16;19.73;;;4.57;;
31336;SDS011;22846;42.654;23.314;2023-10-08T13:59:45;22.95;;;4.82;;
31336;SDS011;22846;42.654;23.314;2023-10-08T14:02:12;19.10;;;4.30;;
31336;SDS011;22846;42.654;23.314;2023-10-08T14:04:43;12.57;;;3.83;;
31336;SDS011;22846;42.654;23.314;2023-10-08T14:07:10;20.52;;;4.68;;
31336;SDS011;22846;42.654;23.314;2023-10-08T14:09:42;18.83;;;4.75;;
31336;SDS011;22846;42.654;23.314;2023-10-08T14:12:10;14.32;;;4.25;;
31336;SDS011;22846;42.654;23.314;2023-10-08T14:14:36;16.50;;;4.60;;
31336;SDS011;22846;42.654;23.314;2023-10-08T14:17:06;17.83;;;3.95;;
31336;SDS011;22846;42.654;23.314;2023-10-08T14:19:32;16.08;;;4.32;;
31336;SDS011;22846;42.654;23.314;2023-10-08T14:22:26;22.70;;;4.20;;
31336;SDS011;22846;42.654;23.314;2023-10-08T14:24:52;20.13;;;4.15;;
31336;SDS011;22846;42.654;23.314;2023-10-08T14:27:29;11.27;;;3.80;;
31336;SDS011;22846;42.654;23.314;2023-10-08T14:29:58;12.25;;;3.80;;
31336;SDS011;22846;42.654;23.314;2023-10-08T14:32:29;16.13;;;4.50;;
31336;SDS011;22846;42.654;23.314;2023-10-08T14:34:57;17.83;;;3.92;;
31336;SDS011;22846;42.654;23.314;2023-10-08T14:37:22;17.42;;;4.03;;
31336;SDS011;22846;42.654;23.314;2023-10-08T14:40:06;15.43;;;3.72;;
31336;SDS011;22846;42.654;23.314;2023-10-08T14:42:51;17.10;;;3.83;;
31336;SDS011;22846;42.654;23.314;2023-10-08T14:45:32;14.30;;;3.72;;
31336;SDS011;22846;42.654;23.314;2023-10-08T14:48:06;14.25;;;3.85;;
31336;SDS011;22846;42.654;23.314;2023-10-08T14:50:36;18.33;;;4.10;;
31336;SDS011;22846;42.654;23.314;2023-10-08T14:53:04;12.30;;;3.13;;
31336;SDS011;22846;42.654;23.314;2023-10-08T14:55:30;13.40;;;3.97;;
31336;SDS011;22846;42.654;23.314;2023-10-08T14:57:59;10.32;;;3.28;;
31336;SDS011;22846;42.654;23.314;2023-10-08T15:00:31;19.38;;;4.05;;
31336;SDS011;22846;42.654;23.314;2023-10-08T15:02:56;13.55;;;4.00;;
31336;SDS011;22846;42.654;23.314;2023-10-08T15:05:23;15.20;;;3.47;;
31336;SDS011;22846;42.654;23.314;2023-10-08T15:07:49;18.98;;;3.47;;
31336;SDS011;22846;42.654;23.314;2023-10-08T15:10:16;13.95;;;3.65;;
31336;SDS011;22846;42.654;23.314;2023-10-08T15:12:42;10.82;;;3.78;;
31336;SDS011;22846;42.654;23.314;2023-10-08T15:15:08;13.77;;;3.75;;